createdAt,value
2023-10-03T00:02:11.552Z,23.78
2023-10-03T00:04:39.765Z,23.76
2023-10-03T00:07:07.675Z,23.76
2023-10-03T00:09:35.473Z,23.75
2023-10-03T00:12:03.639Z,23.76
2023-10-03T00:14:31.946Z,23.77
2023-10-03T00:16:59.647Z,23.74
2023-10-03T00:19:27.274Z,23.75
2023-10-03T00:21:54.948Z,23.75
2023-10-03T00:24:22.604Z,23.76
2023-10-03T00:26:54.989Z,23.76
2023-10-03T00:29:25.095Z,23.74
2023-10-03T00:31:53.977Z,23.74
2023-10-03T00:34:24.336Z,23.75
2023-10-03T00:36:55.504Z,23.73
2023-10-03T00:39:23.632Z,23.71
2023-10-03T00:41:51.489Z,23.76
2023-10-03T00:44:20.836Z,23.74
2023-10-03T00:46:48.673Z,23.74
2023-10-03T00:49:17.276Z,23.74
2023-10-03T00:51:46.739Z,23.75
2023-10-03T00:54:14.483Z,23.74
2023-10-03T00:56:44.397Z,23.75
2023-10-03T00:59:12.676Z,23.74
2023-10-03T01:01:40.461Z,23.74
2023-10-03T01:04:17.472Z,23.73
2023-10-03T01:06:45.226Z,23.72
2023-10-03T01:09:21.557Z,23.72
2023-10-03T01:11:53.303Z,23.73
2023-10-03T01:14:21.088Z,23.72
2023-10-03T01:16:49.438Z,23.75
2023-10-03T01:19:21.846Z,23.73
2023-10-03T01:21:51.309Z,23.71
2023-10-03T01:24:23.833Z,23.71
2023-10-03T01:26:53.427Z,23.72
2023-10-03T01:29:21.222Z,23.73
2023-10-03T01:31:48.845Z,23.71
2023-10-03T01:34:17.119Z,23.71
2023-10-03T01:36:47.098Z,23.71
2023-10-03T01:39:15.418Z,23.71
2023-10-03T01:41:43.809Z,23.70
2023-10-03T01:44:11.664Z,23.70
2023-10-03T01:46:41.119Z,23.70
2023-10-03T01:49:08.828Z,23.70
2023-10-03T01:51:36.434Z,23.69
2023-10-03T01:54:04.570Z,23.68
2023-10-03T01:56:32.283Z,23.70
2023-10-03T01:59:01.565Z,23.68
2023-10-03T02:01:30.802Z,23.67
2023-10-03T02:04:00.740Z,23.69
2023-10-03T02:06:29.095Z,23.67
2023-10-03T02:08:58.032Z,23.66
2023-10-03T02:11:28.106Z,23.69
2023-10-03T02:13:56.588Z,23.65
2023-10-03T02:16:24.287Z,23.65
2023-10-03T02:18:53.540Z,23.65
2023-10-03T02:21:21.185Z,23.65
2023-10-03T02:23:49.340Z,23.65
2023-10-03T02:26:17.843Z,23.66
2023-10-03T02:28:46.182Z,23.67
2023-10-03T02:31:16.296Z,23.67
2023-10-03T02:33:45.664Z,23.67
2023-10-03T02:36:16.941Z,23.66
2023-10-03T02:38:45.142Z,23.62
2023-10-03T02:41:14.304Z,23.63
2023-10-03T02:43:43.588Z,23.66
2023-10-03T02:46:13.928Z,23.63
2023-10-03T02:48:42.180Z,23.64
2023-10-03T02:51:11.083Z,23.62
2023-10-03T02:53:39.387Z,23.63
2023-10-03T02:56:08.682Z,23.63
2023-10-03T02:58:36.745Z,23.67
2023-10-03T03:01:04.509Z,23.64
2023-10-03T03:03:34.579Z,23.65
2023-10-03T03:06:04.274Z,23.63
2023-10-03T03:08:32.444Z,23.62
2023-10-03T03:11:01.671Z,23.64
2023-10-03T03:13:29.723Z,23.64
2023-10-03T03:16:01.332Z,23.63
2023-10-03T03:18:31.943Z,23.64
2023-10-03T03:20:59.667Z,23.63
2023-10-03T03:23:30.811Z,23.63
2023-10-03T03:26:11.007Z,23.64
2023-10-03T03:28:40.364Z,23.63
2023-10-03T03:31:10.511Z,23.65
2023-10-03T03:33:38.242Z,23.66
2023-10-03T03:36:06.092Z,23.65
2023-10-03T03:38:33.817Z,23.65
2023-10-03T03:41:02.780Z,23.68
2023-10-03T03:43:32.823Z,23.65
2023-10-03T03:46:00.497Z,23.64
2023-10-03T03:48:28.217Z,23.64
2023-10-03T03:50:56.039Z,23.64
2023-10-03T03:53:23.965Z,23.63
2023-10-03T03:55:51.732Z,23.64
2023-10-03T03:58:20.163Z,23.66
2023-10-03T04:00:52.669Z,23.66
2023-10-03T04:03:21.091Z,23.66
2023-10-03T04:05:49.012Z,23.68
2023-10-03T04:08:16.999Z,23.67
2023-10-03T04:10:44.672Z,23.69
2023-10-03T04:13:12.308Z,23.69
2023-10-03T04:15:41.710Z,23.69
2023-10-03T04:18:10.126Z,23.69
2023-10-03T04:20:40.945Z,23.71
2023-10-03T04:23:09.497Z,23.71
2023-10-03T04:25:39.300Z,23.70
2023-10-03T04:28:07.374Z,23.69
2023-10-03T04:30:35.097Z,23.70
2023-10-03T04:33:03.594Z,23.69
2023-10-03T04:35:31.414Z,23.71
2023-10-03T04:37:59.119Z,23.73
2023-10-03T04:40:29.580Z,23.74
2023-10-03T04:42:58.434Z,23.73
2023-10-03T04:45:26.716Z,23.75
2023-10-03T04:47:54.437Z,23.76
2023-10-03T04:50:27.075Z,23.76
2023-10-03T04:52:55.192Z,23.74
2023-10-03T04:55:22.841Z,23.76
2023-10-03T04:57:51.213Z,23.76
2023-10-03T05:00:18.864Z,23.74
2023-10-03T05:02:48.273Z,23.79
2023-10-03T05:05:16.123Z,23.75
2023-10-03T05:07:43.810Z,23.78
2023-10-03T05:10:11.510Z,23.80
2023-10-03T05:12:39.944Z,23.80
2023-10-03T05:15:08.248Z,23.83
2023-10-03T05:17:35.979Z,23.82
2023-10-03T05:20:03.983Z,23.82
2023-10-03T05:22:32.998Z,23.82
2023-10-03T05:25:00.744Z,23.83
2023-10-03T05:27:29.634Z,23.83
2023-10-03T05:29:57.344Z,23.83
2023-10-03T05:32:27.616Z,23.82
2023-10-03T05:34:55.286Z,23.79
2023-10-03T05:37:22.918Z,23.81
2023-10-03T05:39:50.591Z,23.84
2023-10-03T05:42:19.230Z,23.85
2023-10-03T05:44:46.998Z,23.87
2023-10-03T05:47:14.659Z,23.90
2023-10-03T05:49:44.512Z,23.85
2023-10-03T05:52:12.467Z,23.90
2023-10-03T05:54:40.240Z,23.88
2023-10-03T05:57:07.949Z,23.86
2023-10-03T05:59:36.154Z,23.85
2023-10-03T06:02:05.251Z,23.85
2023-10-03T06:04:37.416Z,23.90
2023-10-03T06:07:07.683Z,23.91
2023-10-03T06:09:35.418Z,23.93
2023-10-03T06:12:03.083Z,23.94
2023-10-03T06:14:30.873Z,23.94
2023-10-03T06:16:58.890Z,23.95
2023-10-03T06:19:26.523Z,23.93
2023-10-03T06:21:54.200Z,23.93
2023-10-03T06:24:22.016Z,23.93
2023-10-03T06:26:50.005Z,23.92
2023-10-03T06:29:18.114Z,23.94
2023-10-03T06:31:46.309Z,23.94
2023-10-03T06:34:13.968Z,23.96
2023-10-03T06:36:41.637Z,23.97
2023-10-03T06:39:09.609Z,24.00
2023-10-03T06:41:39.381Z,24.00
2023-10-03T06:44:07.056Z,23.99
2023-10-03T06:46:35.891Z,23.98
2023-10-03T06:49:03.864Z,24.00
2023-10-03T06:51:31.756Z,23.99
2023-10-03T06:53:59.454Z,24.01
2023-10-03T06:56:27.267Z,24.00
2023-10-03T06:58:55.524Z,24.01
2023-10-03T07:01:23.203Z,24.03
2023-10-03T07:03:51.100Z,24.03
2023-10-03T07:06:19.102Z,24.04
2023-10-03T07:08:46.996Z,24.00
2023-10-03T07:11:17.468Z,24.03
2023-10-03T07:13:45.476Z,24.04
2023-10-03T07:16:13.302Z,24.06
2023-10-03T07:18:44.886Z,24.05
2023-10-03T07:21:12.722Z,24.05
2023-10-03T07:23:42.801Z,24.05
2023-10-03T07:26:12.554Z,24.07
2023-10-03T07:28:42.375Z,24.08
2023-10-03T07:31:10.920Z,24.09
2023-10-03T07:33:38.760Z,24.09
2023-10-03T07:36:06.495Z,24.11
2023-10-03T07:38:34.219Z,24.10
2023-10-03T07:41:01.896Z,24.10
2023-10-03T07:43:30.083Z,24.11
2023-10-03T07:45:57.686Z,24.10
2023-10-03T07:48:25.467Z,24.12
2023-10-03T07:50:53.273Z,24.14
2023-10-03T07:53:20.899Z,24.13
2023-10-03T07:55:48.790Z,24.13
2023-10-03T07:58:16.460Z,24.13
2023-10-03T08:00:45.894Z,24.14
2023-10-03T08:03:14.056Z,24.16
2023-10-03T08:05:42.078Z,24.19
2023-10-03T08:08:09.872Z,24.15
2023-10-03T08:10:37.495Z,24.18
2023-10-03T08:13:05.140Z,24.21
2023-10-03T08:15:33.840Z,24.21
2023-10-03T08:18:01.850Z,24.25
2023-10-03T08:20:29.730Z,24.23
2023-10-03T08:22:57.622Z,24.20
2023-10-03T08:25:26.043Z,24.20
2023-10-03T08:27:54.101Z,24.22
2023-10-03T08:30:31.212Z,24.23
2023-10-03T08:32:59.348Z,24.24
2023-10-03T08:35:36.207Z,24.24
2023-10-03T08:38:06.352Z,24.24
2023-10-03T08:40:37.098Z,24.25
2023-10-03T08:43:04.901Z,24.28
2023-10-03T08:45:35.420Z,24.30
2023-10-03T08:48:07.537Z,24.28
2023-10-03T08:50:35.943Z,24.28
2023-10-03T08:53:16.755Z,24.25
2023-10-03T08:55:44.855Z,24.27
2023-10-03T09:00:42.198Z,24.27
2023-10-03T09:03:11.495Z,24.28
2023-10-03T09:05:41.377Z,24.24
2023-10-03T09:08:10.305Z,24.24
2023-10-03T09:10:49.271Z,24.24
2023-10-03T09:13:16.900Z,24.26
2023-10-03T09:15:44.615Z,24.28
2023-10-03T09:18:16.257Z,24.28
2023-10-03T09:20:44.793Z,24.30
2023-10-03T09:23:16.163Z,24.30
2023-10-03T09:25:50.015Z,24.27
2023-10-03T09:28:18.156Z,24.23
2023-10-03T09:30:45.779Z,24.24
2023-10-03T09:33:13.996Z,24.26
2023-10-03T09:35:41.745Z,24.29
2023-10-03T09:38:10.148Z,24.28
2023-10-03T09:40:37.831Z,24.27
2023-10-03T09:43:12.691Z,24.26
2023-10-03T09:45:40.355Z,24.23
2023-10-03T09:48:09.084Z,24.22
2023-10-03T09:50:37.386Z,24.18
2023-10-03T09:53:07.643Z,24.16
2023-10-03T09:55:42.271Z,24.06
2023-10-03T09:58:10.270Z,24.08
2023-10-03T10:00:52.316Z,24.08
2023-10-03T10:03:27.300Z,24.06
2023-10-03T10:06:01.445Z,24.07
2023-10-03T10:08:32.239Z,24.03
2023-10-03T10:11:08.563Z,23.99
2023-10-03T10:13:38.628Z,23.95
2023-10-03T10:16:09.486Z,23.95
2023-10-03T10:18:37.323Z,24.06
2023-10-03T10:21:05.105Z,24.01
2023-10-03T10:23:36.410Z,24.03
2023-10-03T10:26:07.185Z,24.00
2023-10-03T10:28:35.580Z,23.99
2023-10-03T10:31:03.347Z,23.98
2023-10-03T10:33:31.124Z,23.98
2023-10-03T10:36:01.463Z,23.96
2023-10-03T10:38:29.229Z,23.94
2023-10-03T10:40:57.021Z,23.96
2023-10-03T10:43:25.219Z,23.92
2023-10-03T10:45:54.294Z,23.92
2023-10-03T10:48:23.330Z,23.93
2023-10-03T10:50:51.072Z,23.94
2023-10-03T10:53:19.417Z,23.93
2023-10-03T10:55:47.126Z,23.91
2023-10-03T10:58:14.914Z,23.93
2023-10-03T11:00:43.464Z,23.93
2023-10-03T11:03:11.786Z,23.94
2023-10-03T11:05:39.626Z,23.94
2023-10-03T11:08:07.419Z,23.93
2023-10-03T11:10:35.891Z,23.94
2023-10-03T11:13:09.140Z,23.93
2023-10-03T11:15:36.757Z,23.91
2023-10-03T11:18:06.014Z,23.91
2023-10-03T11:20:34.048Z,23.92
2023-10-03T11:23:01.806Z,23.92
2023-10-03T11:25:29.447Z,23.93
2023-10-03T11:27:58.202Z,23.93
2023-10-03T11:30:27.072Z,23.92
2023-10-03T11:32:54.804Z,23.91
2023-10-03T11:35:23.130Z,23.92
2023-10-03T11:37:52.529Z,23.91
2023-10-03T11:40:21.567Z,23.92
2023-10-03T11:42:49.624Z,23.94
2023-10-03T11:45:19.792Z,23.95
2023-10-03T11:47:47.689Z,23.93
2023-10-03T11:50:15.894Z,23.94
2023-10-03T11:52:43.758Z,23.95
2023-10-03T11:55:11.423Z,23.93
2023-10-03T11:57:39.412Z,23.96
2023-10-03T12:00:16.060Z,23.96
2023-10-03T12:02:46.321Z,23.98
2023-10-03T12:05:14.079Z,23.97
2023-10-03T12:07:46.993Z,23.99
2023-10-03T12:10:14.765Z,23.99
2023-10-03T12:12:42.433Z,23.97
2023-10-03T12:15:13.616Z,23.96
2023-10-03T12:17:41.818Z,23.98
2023-10-03T12:20:13.115Z,23.98
2023-10-03T12:22:41.537Z,23.99
2023-10-03T12:25:09.621Z,23.96
2023-10-03T12:27:37.424Z,23.95
2023-10-03T12:30:05.409Z,24.00
2023-10-03T12:32:35.824Z,24.00
2023-10-03T12:35:04.754Z,23.96
2023-10-03T12:37:32.426Z,23.97
2023-10-03T12:40:04.581Z,23.98
2023-10-03T12:42:32.517Z,24.00
2023-10-03T12:45:01.969Z,24.00
2023-10-03T12:47:29.845Z,24.00
2023-10-03T12:49:58.418Z,23.98
2023-10-03T12:52:26.091Z,23.99
2023-10-03T12:54:54.221Z,23.99
2023-10-03T12:57:22.920Z,24.00
2023-10-03T12:59:53.453Z,24.00
2023-10-03T13:02:21.103Z,23.99
2023-10-03T13:04:49.227Z,24.01
2023-10-03T13:07:18.185Z,24.02
2023-10-03T13:09:46.240Z,24.01
2023-10-03T13:12:13.970Z,24.01
2023-10-03T13:14:42.525Z,24.02
2023-10-03T13:17:11.007Z,23.99
2023-10-03T13:19:38.963Z,24.01
2023-10-03T13:22:07.014Z,24.01
2023-10-03T13:24:34.751Z,24.01
2023-10-03T13:27:03.625Z,23.98
2023-10-03T13:29:31.378Z,23.99
2023-10-03T13:31:59.173Z,24.00
2023-10-03T13:34:27.103Z,24.01
2023-10-03T13:36:54.818Z,24.02
2023-10-03T13:39:27.254Z,24.03
2023-10-03T13:41:55.659Z,23.98
2023-10-03T13:44:23.358Z,23.97
2023-10-03T13:46:51.533Z,23.97
2023-10-03T13:49:20.611Z,23.97
2023-10-03T13:51:48.904Z,23.98
2023-10-03T13:54:16.587Z,24.00
2023-10-03T13:56:44.277Z,24.02
2023-10-03T13:59:11.938Z,24.00
2023-10-03T14:01:39.622Z,23.94
2023-10-03T14:04:09.325Z,23.95
2023-10-03T14:06:37.147Z,23.96
2023-10-03T14:09:07.140Z,23.95
2023-10-03T14:11:34.821Z,23.97
2023-10-03T14:14:02.508Z,23.96
2023-10-03T14:16:30.185Z,23.98
2023-10-03T14:18:58.841Z,23.96
2023-10-03T14:21:43.640Z,23.94
2023-10-03T14:24:13.721Z,23.93
2023-10-03T14:26:41.494Z,23.91
2023-10-03T14:29:09.306Z,23.92
2023-10-03T14:31:37.792Z,23.92
2023-10-03T14:34:05.540Z,23.93
2023-10-03T14:36:33.904Z,23.93
2023-10-03T14:39:01.757Z,23.98
2023-10-03T14:41:29.559Z,24.01
2023-10-03T14:43:57.249Z,24.01
2023-10-03T14:46:25.406Z,23.98
2023-10-03T14:48:53.149Z,24.00
2023-10-03T14:51:20.862Z,24.06
2023-10-03T14:53:53.545Z,24.03
2023-10-03T14:56:22.832Z,24.02
2023-10-03T14:58:50.480Z,24.03
2023-10-03T15:01:18.192Z,24.03
2023-10-03T15:03:45.969Z,24.06
2023-10-03T15:06:13.858Z,24.09
2023-10-03T15:08:41.701Z,24.06
2023-10-03T15:11:09.844Z,24.07
2023-10-03T15:13:37.882Z,24.11
2023-10-03T15:16:05.555Z,24.13
2023-10-03T15:18:34.707Z,24.13
2023-10-03T15:21:02.542Z,24.07
2023-10-03T15:23:30.418Z,24.07
2023-10-03T15:25:58.047Z,24.11
2023-10-03T15:28:25.670Z,24.13
2023-10-03T15:30:55.079Z,24.14
2023-10-03T15:33:22.965Z,24.14
2023-10-03T15:35:51.799Z,24.23
2023-10-03T15:38:19.902Z,24.23
2023-10-03T15:40:47.732Z,24.22
2023-10-03T15:43:16.636Z,24.25
2023-10-03T15:45:44.445Z,24.27
2023-10-03T15:48:12.488Z,24.36
2023-10-03T15:50:41.288Z,24.40
2023-10-03T15:53:09.609Z,24.44
2023-10-03T15:55:38.574Z,24.38
2023-10-03T15:58:06.916Z,24.39
2023-10-03T16:00:34.770Z,24.35
2023-10-03T16:03:03.918Z,24.37
2023-10-03T16:05:33.778Z,24.41
2023-10-03T16:08:01.920Z,24.41
2023-10-03T16:10:35.461Z,24.39
2023-10-03T16:13:03.394Z,24.37
2023-10-03T16:15:31.032Z,24.38
2023-10-03T16:17:58.714Z,24.40
2023-10-03T16:20:27.487Z,24.42
2023-10-03T16:22:55.584Z,24.38
2023-10-03T16:25:24.796Z,24.40
2023-10-03T16:27:53.868Z,24.41
2023-10-03T16:30:21.594Z,24.33
2023-10-03T16:32:49.561Z,24.40
2023-10-03T16:35:17.362Z,24.40
2023-10-03T16:37:45.721Z,24.36
2023-10-03T16:40:14.202Z,24.37
2023-10-03T16:42:46.256Z,24.35
2023-10-03T16:45:17.683Z,24.37
2023-10-03T16:47:46.081Z,24.34
2023-10-03T16:50:14.213Z,24.33
2023-10-03T16:52:42.547Z,24.33
2023-10-03T16:55:10.285Z,24.31
2023-10-03T16:57:38.151Z,24.31
2023-10-03T17:00:07.246Z,24.33
2023-10-03T17:02:35.173Z,24.33
2023-10-03T17:05:06.171Z,24.32
2023-10-03T17:07:34.664Z,24.32
2023-10-03T17:10:02.422Z,24.31
2023-10-03T17:12:30.173Z,24.29
2023-10-03T17:14:57.906Z,24.29
2023-10-03T17:17:25.648Z,24.29
2023-10-03T17:19:53.514Z,24.28
2023-10-03T17:22:21.515Z,24.26
2023-10-03T17:24:49.336Z,24.27
2023-10-03T17:27:17.072Z,24.28
2023-10-03T17:29:44.781Z,24.28
2023-10-03T17:32:12.532Z,24.29
2023-10-03T17:34:40.231Z,24.27
2023-10-03T17:37:09.196Z,24.24
2023-10-03T17:39:37.350Z,24.23
2023-10-03T17:42:07.278Z,24.22
2023-10-03T17:44:35.768Z,24.26
2023-10-03T17:47:04.186Z,24.23
2023-10-03T17:49:32.212Z,24.21
2023-10-03T17:51:59.867Z,24.21
2023-10-03T17:54:33.833Z,24.20
2023-10-03T17:57:02.473Z,24.26
2023-10-03T17:59:31.526Z,24.23
2023-10-03T18:01:59.361Z,24.24
2023-10-03T18:04:27.255Z,24.23
2023-10-03T18:06:54.979Z,24.22
2023-10-03T18:09:25.461Z,24.23
2023-10-03T18:11:55.767Z,24.21
2023-10-03T18:14:23.636Z,24.18
2023-10-03T18:16:51.395Z,24.17
2023-10-03T18:19:19.155Z,24.19
2023-10-03T18:21:46.865Z,24.16
2023-10-03T18:24:14.843Z,24.15
2023-10-03T18:26:42.823Z,24.14
2023-10-03T18:29:10.590Z,24.13
2023-10-03T18:31:38.265Z,24.16
2023-10-03T18:34:06.044Z,24.14
2023-10-03T18:36:33.822Z,24.13
2023-10-03T18:39:02.196Z,24.12
2023-10-03T18:41:30.215Z,24.10
2023-10-03T18:43:58.637Z,24.11
2023-10-03T18:46:27.351Z,24.10
2023-10-03T18:48:55.094Z,24.09
2023-10-03T18:51:22.809Z,24.07
2023-10-03T18:53:50.801Z,24.07
2023-10-03T18:56:19.182Z,24.06
2023-10-03T18:58:47.463Z,24.03
2023-10-03T19:01:15.274Z,24.04
2023-10-03T19:03:43.153Z,24.04
2023-10-03T19:06:10.972Z,24.00
2023-10-03T19:08:38.686Z,23.99
2023-10-03T19:11:06.333Z,24.00
2023-10-03T19:13:33.953Z,24.01
2023-10-03T19:16:03.128Z,23.99
2023-10-03T19:18:30.864Z,23.98
2023-10-03T19:20:58.661Z,23.97
2023-10-03T19:23:26.712Z,23.96
2023-10-03T19:25:54.748Z,23.96
2023-10-03T19:28:22.459Z,23.96
2023-10-03T19:30:50.227Z,23.97
2023-10-03T19:33:18.052Z,23.96
2023-10-03T19:35:45.836Z,23.94
2023-10-03T19:38:13.457Z,23.94
2023-10-03T19:40:41.232Z,23.92
2023-10-03T19:43:09.017Z,23.90
2023-10-03T19:45:36.952Z,23.91
2023-10-03T19:48:04.599Z,23.88
2023-10-03T19:50:32.476Z,23.87
2023-10-03T19:53:02.378Z,23.87
2023-10-03T19:55:30.039Z,23.89
2023-10-03T19:57:57.699Z,23.86
2023-10-03T20:00:28.196Z,23.86
2023-10-03T20:02:56.018Z,23.86
2023-10-03T20:05:23.762Z,23.86
2023-10-03T20:07:51.367Z,23.84
2023-10-03T20:10:20.598Z,23.84
2023-10-03T20:12:48.235Z,23.85
2023-10-03T20:15:16.886Z,23.83
2023-10-03T20:17:44.872Z,23.81
2023-10-03T20:20:12.712Z,23.81
2023-10-03T20:22:42.728Z,23.80
2023-10-03T20:25:11.279Z,23.80
2023-10-03T20:27:39.118Z,23.80
2023-10-03T20:30:06.974Z,23.83
2023-10-03T20:32:35.027Z,23.79
2023-10-03T20:35:02.684Z,23.78
2023-10-03T20:37:30.382Z,23.79
2023-10-03T20:39:59.894Z,23.75
2023-10-03T20:42:27.686Z,23.75
2023-10-03T20:44:55.489Z,23.72
2023-10-03T20:47:23.206Z,23.72
2023-10-03T20:49:51.685Z,23.72
2023-10-03T20:52:20.113Z,23.70
2023-10-03T20:54:47.916Z,23.71
2023-10-03T20:57:15.786Z,23.69
2023-10-03T20:59:43.437Z,23.71
2023-10-03T21:02:11.099Z,23.70
2023-10-03T21:04:39.354Z,23.71
2023-10-03T21:07:07.221Z,23.68
2023-10-03T21:09:35.530Z,23.69
2023-10-03T21:12:04.310Z,23.69
2023-10-03T21:14:31.996Z,23.68
2023-10-03T21:16:59.631Z,23.69
2023-10-03T21:19:27.377Z,23.67
2023-10-03T21:21:55.355Z,23.68
2023-10-03T21:24:23.005Z,23.64
2023-10-03T21:26:52.012Z,23.66
2023-10-03T21:29:19.885Z,23.65
2023-10-03T21:31:50.075Z,23.64
2023-10-03T21:34:17.774Z,23.66
2023-10-03T21:36:49.259Z,23.63
2023-10-03T21:39:17.246Z,23.59
2023-10-03T21:41:45.059Z,23.56
2023-10-03T21:44:13.087Z,23.57
2023-10-03T21:46:40.750Z,23.57
2023-10-03T21:49:08.499Z,23.59
2023-10-03T21:51:36.518Z,23.58
2023-10-03T21:54:04.985Z,23.58
2023-10-03T21:56:32.889Z,23.59
2023-10-03T21:59:01.823Z,23.61
2023-10-03T22:01:29.691Z,23.59
2023-10-03T22:03:57.339Z,23.61
2023-10-03T22:06:25.798Z,23.62
2023-10-03T22:08:53.643Z,23.61
2023-10-03T22:11:21.376Z,23.58
2023-10-03T22:13:50.789Z,23.57
2023-10-03T22:16:18.622Z,23.61
2023-10-03T22:18:46.535Z,23.60
2023-10-03T22:21:14.289Z,23.59
2023-10-03T22:23:41.919Z,23.62
2023-10-03T22:26:10.244Z,23.60
2023-10-03T22:28:38.032Z,23.59
2023-10-03T22:31:05.683Z,23.58
2023-10-03T22:33:33.387Z,23.58
2023-10-03T22:36:01.225Z,23.56
2023-10-03T22:38:29.371Z,23.55
2023-10-03T22:40:56.970Z,23.54
2023-10-03T22:43:25.303Z,23.57
2023-10-03T22:45:52.989Z,23.55
2023-10-03T22:48:20.867Z,23.55
2023-10-03T22:50:49.302Z,23.53
2023-10-03T22:53:17.305Z,23.53
2023-10-03T22:55:45.263Z,23.55
2023-10-03T22:58:13.030Z,23.55
2023-10-03T23:00:40.626Z,23.56
2023-10-03T23:03:08.599Z,23.57
2023-10-03T23:05:36.281Z,23.56
2023-10-03T23:08:04.910Z,23.56
2023-10-03T23:10:32.776Z,23.55
2023-10-03T23:13:00.608Z,23.52
2023-10-03T23:15:29.400Z,23.50
2023-10-03T23:17:57.191Z,23.51
2023-10-03T23:20:26.835Z,23.53
2023-10-03T23:22:54.467Z,23.52
2023-10-03T23:25:22.177Z,23.53
2023-10-03T23:27:50.209Z,23.52
2023-10-03T23:30:18.600Z,23.51
2023-10-03T23:32:46.297Z,23.53
2023-10-03T23:35:14.628Z,23.51
2023-10-03T23:37:42.277Z,23.51
2023-10-03T23:40:12.849Z,23.52
2023-10-03T23:42:40.481Z,23.50
2023-10-03T23:45:08.118Z,23.51
2023-10-03T23:47:36.401Z,23.49
2023-10-03T23:50:07.326Z,23.50
2023-10-03T23:52:35.293Z,23.51
2023-10-03T23:55:08.227Z,23.51
2023-10-03T23:57:37.811Z,23.52
